createdAt,value
2022-09-26T00:00:05.577Z,0.60
2022-09-26T00:02:32.396Z,0.60
2022-09-26T00:04:59.319Z,0.57
2022-09-26T00:07:26.159Z,0.47
2022-09-26T00:09:54.052Z,0.50
2022-09-26T00:12:21.028Z,0.60
2022-09-26T00:14:47.847Z,0.38
2022-09-26T00:17:14.703Z,0.52
2022-09-26T00:19:41.606Z,0.40
2022-09-26T00:22:08.426Z,0.40
2022-09-26T00:24:35.323Z,0.60
2022-09-26T00:27:02.123Z,0.60
2022-09-26T00:29:28.936Z,0.40
2022-09-26T00:31:55.729Z,0.60
2022-09-26T00:34:22.593Z,0.70
2022-09-26T00:36:49.444Z,0.40
2022-09-26T00:39:16.486Z,0.40
2022-09-26T00:41:43.484Z,0.70
2022-09-26T00:44:41.483Z,0.52
2022-09-26T00:47:27.158Z,0.43
2022-09-26T00:50:19.119Z,0.60
2022-09-26T00:52:56.406Z,0.60
2022-09-26T00:55:24.102Z,0.85
2022-09-26T00:57:57.955Z,0.60
2022-09-26T01:00:24.824Z,0.93
2022-09-26T01:02:51.830Z,0.35
2022-09-26T01:05:20.171Z,0.80
2022-09-26T01:07:47.052Z,0.50
2022-09-26T01:10:15.469Z,0.50
2022-09-26T01:12:42.806Z,0.60
2022-09-26T01:15:10.008Z,0.43
2022-09-26T01:17:41.765Z,0.63
2022-09-26T01:20:29.192Z,0.60
2022-09-26T01:23:17.017Z,0.82
2022-09-26T01:26:21.603Z,0.50
2022-09-26T01:29:07.321Z,0.60
2022-09-26T01:31:36.882Z,0.55
2022-09-26T01:34:09.760Z,0.32
2022-09-26T01:36:50.552Z,0.52
2022-09-26T01:39:35.965Z,0.43
2022-09-26T01:42:26.426Z,0.45
2022-09-26T01:45:07.817Z,0.38
2022-09-26T01:47:42.626Z,0.55
2022-09-26T01:50:23.862Z,0.60
2022-09-26T01:53:30.844Z,0.45
2022-09-26T01:56:16.662Z,0.50
2022-09-26T01:58:50.288Z,0.50
2022-09-26T02:01:17.274Z,0.40
2022-09-26T02:03:49.276Z,0.70
2022-09-26T02:06:22.594Z,0.55
2022-09-26T02:08:52.820Z,0.40
2022-09-26T02:11:19.751Z,0.25
2022-09-26T02:13:52.181Z,0.70
2022-09-26T02:16:27.781Z,0.43
2022-09-26T02:19:00.048Z,0.40
2022-09-26T02:21:27.012Z,0.40
2022-09-26T02:23:54.678Z,0.43
2022-09-26T02:26:21.476Z,0.50
2022-09-26T02:28:48.297Z,0.55
2022-09-26T02:31:20.682Z,0.77
2022-09-26T02:33:51.896Z,0.60
2022-09-26T02:36:21.868Z,0.50
2022-09-26T02:38:48.820Z,0.70
2022-09-26T02:41:43.399Z,0.43
2022-09-26T02:44:35.794Z,0.70
2022-09-26T02:47:08.726Z,0.40
2022-09-26T02:49:53.981Z,0.45
2022-09-26T02:52:32.867Z,0.40
2022-09-26T02:55:14.807Z,0.60
2022-09-26T02:57:50.621Z,0.47
2022-09-26T03:00:25.323Z,0.77
2022-09-26T03:03:11.010Z,0.50
2022-09-26T03:05:38.221Z,0.80
2022-09-26T03:08:15.972Z,0.60
2022-09-26T03:10:42.796Z,0.65
2022-09-26T03:13:13.359Z,0.60
2022-09-26T03:15:41.516Z,0.70
2022-09-26T03:18:10.520Z,0.75
2022-09-26T03:20:37.270Z,0.50
2022-09-26T03:23:04.189Z,0.60
2022-09-26T03:25:31.180Z,0.63
2022-09-26T03:27:59.664Z,0.68
2022-09-26T03:30:26.579Z,0.50
2022-09-26T03:32:53.351Z,0.50
2022-09-26T03:35:20.909Z,0.50
2022-09-26T03:37:48.186Z,0.70
2022-09-26T03:40:15.146Z,0.77
2022-09-26T03:42:42.143Z,0.47
2022-09-26T03:45:10.520Z,0.73
2022-09-26T03:47:38.807Z,0.50
2022-09-26T03:50:06.590Z,0.45
2022-09-26T03:52:33.400Z,0.70
2022-09-26T03:55:00.207Z,1.10
2022-09-26T03:57:30.357Z,0.50
2022-09-26T04:03:05.952Z,0.45
2022-09-26T04:05:32.984Z,0.57
2022-09-26T04:08:01.274Z,0.50
2022-09-26T04:10:28.263Z,0.50
2022-09-26T04:12:57.017Z,0.70
2022-09-26T04:15:24.004Z,0.47
2022-09-26T04:17:50.782Z,0.60
2022-09-26T04:20:17.654Z,0.85
2022-09-26T04:22:44.492Z,0.50
2022-09-26T04:25:12.781Z,0.38
2022-09-26T04:27:39.580Z,0.30
2022-09-26T04:30:06.832Z,0.40
2022-09-26T04:32:33.675Z,0.30
2022-09-26T04:35:01.202Z,0.47
2022-09-26T04:37:28.051Z,0.47
2022-09-26T04:39:55.531Z,0.20
2022-09-26T04:42:24.357Z,0.60
2022-09-26T04:44:51.693Z,0.40
2022-09-26T04:47:18.715Z,0.68
2022-09-26T04:49:46.977Z,0.40
2022-09-26T04:52:14.591Z,0.38
2022-09-26T04:54:45.204Z,0.38
2022-09-26T04:57:19.327Z,0.38
2022-09-26T04:59:46.679Z,0.60
2022-09-26T05:02:14.067Z,0.30
2022-09-26T05:04:41.279Z,0.40
2022-09-26T05:07:08.299Z,0.47
2022-09-26T05:09:36.425Z,0.40
2022-09-26T05:12:04.029Z,0.30
2022-09-26T05:14:30.943Z,0.30
2022-09-26T05:16:58.000Z,0.43
2022-09-26T05:19:24.939Z,0.30
2022-09-26T05:21:51.879Z,0.38
2022-09-26T05:24:37.706Z,0.30
2022-09-26T05:27:06.916Z,0.30
2022-09-26T05:29:33.795Z,0.38
2022-09-26T05:32:01.577Z,0.45
2022-09-26T05:34:28.389Z,0.65
2022-09-26T05:36:56.525Z,0.40
2022-09-26T05:39:42.798Z,0.40
2022-09-26T05:42:10.640Z,0.40
2022-09-26T05:44:39.753Z,0.40
2022-09-26T05:47:07.997Z,0.28
2022-09-26T05:49:36.016Z,0.30
2022-09-26T05:52:04.239Z,0.30
2022-09-26T05:54:31.555Z,0.40
2022-09-26T05:56:58.474Z,0.45
2022-09-26T05:59:25.216Z,0.40
2022-09-26T06:01:52.324Z,0.30
2022-09-26T06:04:20.081Z,0.40
2022-09-26T06:06:48.771Z,0.40
2022-09-26T06:09:15.953Z,0.30
2022-09-26T06:11:46.713Z,0.40
2022-09-26T06:14:14.384Z,0.30
2022-09-26T06:16:41.351Z,0.55
2022-09-26T06:19:08.718Z,0.40
2022-09-26T06:21:39.935Z,0.20
2022-09-26T06:24:07.249Z,0.47
2022-09-26T06:26:34.125Z,0.20
2022-09-26T06:29:01.043Z,0.38
2022-09-26T06:31:28.100Z,0.40
2022-09-26T06:33:55.364Z,0.40
2022-09-26T06:36:23.203Z,0.22
2022-09-26T06:38:50.346Z,0.38
2022-09-26T06:41:17.414Z,0.30
2022-09-26T06:43:45.318Z,0.20
2022-09-26T06:46:13.097Z,0.30
2022-09-26T06:48:40.044Z,0.30
2022-09-26T06:51:07.067Z,0.30
2022-09-26T06:53:35.136Z,0.55
2022-09-26T06:56:02.190Z,0.30
2022-09-26T06:58:29.105Z,0.40
2022-09-26T07:00:56.666Z,0.50
2022-09-26T07:03:25.515Z,0.28
2022-09-26T07:05:55.573Z,0.50
2022-09-26T07:08:32.567Z,0.40
2022-09-26T07:11:30.479Z,0.30
2022-09-26T07:13:51.483Z,0.45
2022-09-26T07:16:18.472Z,0.38
2022-09-26T07:18:45.438Z,0.40
2022-09-26T07:21:12.313Z,0.30
2022-09-26T07:23:39.266Z,0.20
2022-09-26T07:26:06.894Z,0.32
2022-09-26T07:28:34.192Z,0.22
2022-09-26T07:31:01.555Z,0.50
2022-09-26T07:33:28.551Z,0.22
2022-09-26T07:35:56.827Z,0.30
2022-09-26T07:38:24.369Z,0.30
2022-09-26T07:40:54.423Z,0.40
2022-09-26T07:43:30.854Z,0.32
2022-09-26T07:46:27.223Z,0.40
2022-09-26T07:49:12.698Z,0.50
2022-09-26T07:51:39.576Z,0.50
2022-09-26T07:54:06.575Z,0.30
2022-09-26T07:56:36.105Z,0.43
2022-09-26T07:59:05.327Z,0.30
2022-09-26T08:01:32.382Z,0.52
2022-09-26T08:03:59.443Z,0.60
2022-09-26T08:06:27.648Z,0.70
2022-09-26T08:08:55.235Z,0.60
2022-09-26T08:11:22.877Z,0.70
2022-09-26T08:13:50.093Z,0.43
2022-09-26T08:16:20.721Z,1.00
2022-09-26T08:18:47.758Z,0.57
2022-09-26T08:21:14.795Z,0.60
2022-09-26T08:23:41.756Z,0.47
2022-09-26T08:26:08.667Z,0.80
2022-09-26T08:28:36.204Z,0.63
2022-09-26T08:31:05.210Z,0.93
2022-09-26T08:33:34.829Z,0.98
2022-09-26T08:36:09.410Z,1.40
2022-09-26T08:38:36.893Z,0.82
2022-09-26T08:41:10.066Z,1.00
2022-09-26T08:46:43.614Z,1.10
2022-09-26T08:49:55.458Z,1.40
2022-09-26T08:52:40.805Z,1.40
2022-09-26T08:55:21.480Z,1.55
2022-09-26T08:58:07.826Z,1.48
2022-09-26T09:00:38.200Z,1.35
2022-09-26T09:03:11.546Z,1.65
2022-09-26T09:05:53.528Z,2.03
2022-09-26T09:08:25.429Z,2.50
2022-09-26T09:10:52.182Z,2.00
2022-09-26T09:13:21.826Z,1.45
2022-09-26T09:16:19.120Z,1.92
2022-09-26T09:18:51.942Z,1.83
2022-09-26T09:21:41.924Z,1.85
2022-09-26T09:24:46.069Z,1.70
2022-09-26T09:30:19.963Z,2.92
2022-09-26T09:33:12.015Z,2.10
2022-09-26T09:35:43.789Z,2.90
2022-09-26T09:38:21.050Z,2.17
2022-09-26T09:41:00.272Z,2.70
2022-09-26T09:43:49.092Z,2.58
2022-09-26T09:46:17.473Z,2.47
2022-09-26T09:48:47.138Z,1.73
2022-09-26T09:51:26.768Z,2.40
2022-09-26T09:54:30.576Z,2.40
2022-09-26T09:59:48.707Z,2.78
2022-09-26T10:02:40.284Z,2.50
2022-09-26T10:05:24.071Z,3.33
2022-09-26T10:07:57.911Z,2.45
2022-09-26T10:11:03.414Z,2.90
2022-09-26T10:13:31.651Z,3.47
2022-09-26T10:16:02.626Z,2.72
2022-09-26T10:18:30.603Z,2.67
2022-09-26T10:21:07.110Z,2.97
2022-09-26T10:23:45.628Z,3.15
2022-09-26T10:26:13.828Z,3.28
2022-09-26T10:28:48.630Z,3.08
2022-09-26T10:31:42.691Z,2.92
2022-09-26T10:34:27.999Z,2.70
2022-09-26T10:36:55.872Z,2.28
2022-09-26T10:39:42.940Z,2.08
2022-09-26T10:42:18.947Z,1.90
2022-09-26T10:44:48.245Z,3.35
2022-09-26T10:47:19.929Z,3.25
2022-09-26T10:49:51.281Z,3.38
2022-09-26T10:52:31.985Z,2.55
2022-09-26T10:55:11.740Z,3.00
2022-09-26T10:57:45.511Z,3.40
2022-09-26T11:00:52.657Z,3.53
2022-09-26T11:03:33.244Z,2.70
2022-09-26T11:06:00.360Z,2.83
2022-09-26T11:08:32.182Z,3.30
2022-09-26T11:11:11.167Z,2.35
2022-09-26T11:13:56.540Z,2.35
2022-09-26T11:16:23.349Z,2.85
2022-09-26T11:19:11.020Z,2.50
2022-09-26T11:21:58.783Z,2.80
2022-09-26T11:24:46.103Z,2.83
2022-09-26T11:27:21.446Z,2.22
2022-09-26T11:30:12.879Z,2.42
2022-09-26T11:32:41.737Z,2.50
2022-09-26T11:35:33.537Z,2.55
2022-09-26T11:38:41.295Z,2.40
2022-09-26T11:41:43.525Z,2.08
2022-09-26T11:44:22.292Z,1.75
2022-09-26T11:47:29.765Z,1.70
2022-09-26T11:50:21.395Z,2.53
2022-09-26T11:52:51.780Z,2.28
2022-09-26T11:55:21.665Z,2.03
2022-09-26T11:58:10.247Z,1.92
2022-09-26T12:01:16.873Z,1.77
2022-09-26T12:04:06.705Z,1.75
2022-09-26T12:06:42.217Z,2.00
2022-09-26T12:09:33.545Z,1.83
2022-09-26T12:12:09.642Z,1.60
2022-09-26T12:14:54.608Z,2.33
2022-09-26T12:17:43.568Z,1.95
2022-09-26T12:20:26.784Z,1.73
2022-09-26T12:25:41.358Z,2.10
2022-09-26T12:28:35.984Z,1.85
2022-09-26T12:31:24.663Z,1.58
2022-09-26T12:34:12.698Z,1.40
2022-09-26T12:37:09.360Z,1.70
2022-09-26T12:40:06.705Z,1.30
2022-09-26T12:42:58.799Z,1.08
2022-09-26T12:45:35.466Z,0.82
2022-09-26T12:48:17.445Z,1.20
2022-09-26T12:50:59.386Z,1.00
2022-09-26T12:53:47.194Z,0.93
2022-09-26T12:56:42.505Z,0.75
2022-09-26T12:59:14.965Z,1.15
2022-09-26T13:01:51.085Z,0.77
2022-09-26T13:04:28.770Z,0.82
2022-09-26T13:07:19.818Z,0.68
2022-09-26T13:09:57.641Z,0.70
2022-09-26T13:12:47.935Z,0.60
2022-09-26T13:15:20.921Z,1.20
2022-09-26T13:20:43.437Z,0.90
2022-09-26T13:23:28.455Z,1.08
2022-09-26T13:26:17.244Z,1.15
2022-09-26T13:29:15.645Z,0.85
2022-09-26T13:31:55.481Z,0.80
2022-09-26T13:34:39.423Z,0.80
2022-09-26T13:37:14.747Z,0.70
2022-09-26T13:40:17.686Z,0.88
2022-09-26T13:42:47.173Z,1.00
2022-09-26T13:45:20.767Z,1.15
2022-09-26T13:47:49.785Z,0.80
2022-09-26T13:50:24.145Z,0.77
2022-09-26T13:53:04.035Z,1.27
2022-09-26T13:55:31.130Z,1.13
2022-09-26T13:58:03.655Z,1.30
2022-09-26T14:00:30.544Z,1.25
2022-09-26T14:03:16.646Z,1.38
2022-09-26T14:05:44.192Z,1.02
2022-09-26T14:08:49.365Z,0.88
2022-09-26T14:11:19.148Z,0.80
2022-09-26T14:13:47.562Z,0.90
2022-09-26T14:16:34.502Z,0.80
2022-09-26T14:19:26.984Z,0.70
2022-09-26T14:22:19.107Z,0.45
2022-09-26T14:24:47.142Z,0.93
2022-09-26T14:27:28.236Z,0.77
2022-09-26T14:30:29.142Z,0.60
2022-09-26T14:33:07.373Z,0.80
2022-09-26T14:35:35.572Z,0.82
2022-09-26T14:38:04.500Z,1.10
2022-09-26T14:40:33.552Z,1.42
2022-09-26T14:43:13.779Z,1.23
2022-09-26T14:45:47.768Z,1.02
2022-09-26T14:48:36.906Z,1.50
2022-09-26T14:51:18.696Z,1.20
2022-09-26T14:53:48.742Z,0.70
2022-09-26T14:56:27.204Z,0.60
2022-09-26T14:58:55.724Z,0.85
2022-09-26T15:01:25.447Z,0.70
2022-09-26T15:04:03.167Z,0.70
2022-09-26T15:06:31.635Z,0.90
2022-09-26T15:08:59.734Z,0.73
2022-09-26T15:11:32.642Z,0.82
2022-09-26T15:14:03.120Z,0.80
2022-09-26T15:16:37.579Z,1.30
2022-09-26T15:19:13.181Z,2.08
2022-09-26T15:22:00.482Z,0.82
2022-09-26T15:24:28.570Z,1.20
2022-09-26T15:26:58.600Z,1.33
2022-09-26T15:29:25.821Z,1.00
2022-09-26T15:31:53.249Z,1.25
2022-09-26T15:34:21.566Z,1.52
2022-09-26T15:36:56.056Z,1.00
2022-09-26T15:39:49.759Z,1.20
2022-09-26T15:42:48.181Z,1.10
2022-09-26T15:45:30.696Z,1.73
2022-09-26T15:48:01.113Z,1.38
2022-09-26T15:50:29.485Z,1.00
2022-09-26T15:53:13.030Z,1.10
2022-09-26T15:55:54.391Z,0.70
2022-09-26T15:58:31.685Z,1.20
2022-09-26T16:00:58.615Z,1.13
2022-09-26T16:03:40.981Z,0.98
2022-09-26T16:06:16.785Z,1.50
2022-09-26T16:08:44.714Z,1.02
2022-09-26T16:11:11.714Z,1.05
2022-09-26T16:13:42.511Z,1.10
2022-09-26T16:16:14.568Z,0.90
2022-09-26T16:18:55.887Z,1.42
2022-09-26T16:21:25.827Z,1.10
2022-09-26T16:23:57.073Z,1.05
2022-09-26T16:26:46.244Z,1.00
2022-09-26T16:29:12.887Z,1.00
2022-09-26T16:31:46.533Z,0.88
2022-09-26T16:34:21.449Z,1.02
2022-09-26T16:36:48.638Z,1.05
2022-09-26T16:39:41.628Z,1.00
2022-09-26T16:42:16.191Z,0.60
2022-09-26T16:44:49.431Z,0.50
2022-09-26T16:50:25.566Z,0.75
2022-09-26T16:52:52.823Z,0.50
2022-09-26T16:55:19.641Z,0.70
2022-09-26T16:57:52.305Z,1.00
2022-09-26T17:00:39.742Z,0.80
2022-09-26T17:03:25.633Z,0.93
2022-09-26T17:05:53.266Z,1.00
2022-09-26T17:08:20.030Z,0.90
2022-09-26T17:10:46.776Z,1.20
2022-09-26T17:13:22.613Z,0.90
2022-09-26T17:15:50.752Z,0.90
2022-09-26T17:18:20.000Z,0.77
2022-09-26T17:20:46.781Z,0.75
2022-09-26T17:23:38.242Z,0.80
2022-09-26T17:26:00.288Z,0.75
2022-09-26T17:28:31.446Z,0.70
2022-09-26T17:30:59.181Z,0.68
2022-09-26T17:33:28.119Z,1.13
2022-09-26T17:35:55.209Z,0.80
2022-09-26T17:38:21.959Z,0.88
2022-09-26T17:40:48.783Z,1.10
2022-09-26T17:43:15.661Z,0.73
2022-09-26T17:45:47.104Z,1.08
2022-09-26T17:48:31.467Z,0.70
2022-09-26T17:51:00.458Z,0.63
2022-09-26T17:53:32.707Z,0.70
2022-09-26T17:55:59.556Z,0.80
2022-09-26T17:58:26.786Z,0.85
2022-09-26T18:00:53.464Z,0.40
2022-09-26T18:03:23.391Z,1.13
2022-09-26T18:05:50.183Z,1.20
2022-09-26T18:08:26.099Z,0.70
2022-09-26T18:10:57.547Z,0.63
2022-09-26T18:13:26.802Z,0.88
2022-09-26T18:15:54.248Z,0.80
2022-09-26T18:18:23.031Z,0.63
2022-09-26T18:20:49.834Z,0.47
2022-09-26T18:23:20.768Z,0.52
2022-09-26T18:25:50.100Z,0.50
2022-09-26T18:28:20.060Z,0.52
2022-09-26T18:30:48.422Z,0.50
2022-09-26T18:33:15.566Z,0.50
2022-09-26T18:35:44.170Z,0.40
2022-09-26T18:38:11.154Z,0.47
2022-09-26T18:40:40.933Z,0.30
2022-09-26T18:43:13.131Z,0.40
2022-09-26T18:45:39.963Z,0.30
2022-09-26T18:48:08.071Z,0.43
2022-09-26T18:50:36.647Z,0.43
2022-09-26T18:53:04.556Z,0.73
2022-09-26T18:55:49.486Z,0.88
2022-09-26T18:58:29.530Z,1.77
2022-09-26T19:01:13.325Z,1.65
2022-09-26T19:03:41.467Z,1.23
2022-09-26T19:06:22.739Z,1.20
2022-09-26T19:08:57.392Z,1.15
2022-09-26T19:11:25.048Z,1.00
2022-09-26T19:13:56.028Z,0.90
2022-09-26T19:16:23.262Z,0.82
2022-09-26T19:18:50.385Z,0.65
2022-09-26T19:21:34.900Z,1.27
2022-09-26T19:24:05.228Z,0.85
2022-09-26T19:26:42.372Z,0.95
2022-09-26T19:29:12.471Z,1.23
2022-09-26T19:31:39.917Z,1.08
2022-09-26T19:34:06.693Z,0.88
2022-09-26T19:36:33.784Z,0.88
2022-09-26T19:39:00.596Z,0.70
2022-09-26T19:41:27.374Z,0.70
2022-09-26T19:43:54.183Z,1.00
2022-09-26T19:46:25.611Z,0.82
2022-09-26T19:48:52.511Z,0.77
2022-09-26T19:51:22.112Z,0.70
2022-09-26T19:53:49.119Z,0.88
2022-09-26T19:56:16.307Z,0.80
2022-09-26T19:58:43.096Z,0.90
2022-09-26T20:01:17.245Z,0.73
2022-09-26T20:03:44.894Z,0.70
2022-09-26T20:06:19.129Z,1.00
2022-09-26T20:08:45.820Z,1.00
2022-09-26T20:11:13.536Z,0.60
2022-09-26T20:13:58.731Z,0.82
2022-09-26T20:16:25.591Z,0.77
2022-09-26T20:18:53.203Z,0.90
2022-09-26T20:21:21.749Z,0.73
2022-09-26T20:23:48.486Z,0.70
2022-09-26T20:26:16.574Z,1.02
2022-09-26T20:28:43.794Z,0.95
2022-09-26T20:31:28.976Z,1.02
2022-09-26T20:34:00.171Z,0.60
2022-09-26T20:36:32.045Z,1.00
2022-09-26T20:39:00.506Z,0.60
2022-09-26T20:41:27.264Z,0.88
2022-09-26T20:44:01.880Z,0.95
2022-09-26T20:46:32.626Z,0.80
2022-09-26T20:48:59.824Z,0.80
2022-09-26T20:51:30.785Z,0.75
2022-09-26T20:54:01.108Z,0.98
2022-09-26T20:56:28.348Z,0.50
2022-09-26T20:58:55.132Z,0.40
2022-09-26T21:01:22.161Z,0.40
2022-09-26T21:03:49.722Z,0.70
2022-09-26T21:06:24.059Z,0.45
2022-09-26T21:08:50.881Z,0.88
2022-09-26T21:11:20.439Z,0.50
2022-09-26T21:13:47.465Z,0.40
2022-09-26T21:16:19.019Z,0.75
2022-09-26T21:18:47.681Z,0.75
2022-09-26T21:21:25.641Z,0.52
2022-09-26T21:23:52.352Z,0.55
2022-09-26T21:26:23.652Z,0.88
2022-09-26T21:28:50.952Z,0.47
2022-09-26T21:31:25.041Z,0.85
2022-09-26T21:33:52.200Z,0.40
2022-09-26T21:36:18.997Z,0.65
2022-09-26T21:38:45.653Z,0.80
2022-09-26T21:41:12.426Z,0.50
2022-09-26T21:43:42.436Z,0.95
2022-09-26T21:46:09.776Z,0.60
2022-09-26T21:48:36.802Z,0.38
2022-09-26T21:51:03.861Z,0.40
2022-09-26T21:53:36.246Z,0.50
2022-09-26T21:56:07.594Z,0.63
2022-09-26T21:58:35.810Z,0.80
2022-09-26T22:01:02.580Z,0.50
2022-09-26T22:03:29.682Z,0.73
2022-09-26T22:05:56.614Z,0.30
2022-09-26T22:08:23.309Z,0.50
2022-09-26T22:10:53.623Z,0.40
2022-09-26T22:13:20.489Z,0.57
2022-09-26T22:15:48.057Z,0.73
2022-09-26T22:18:14.839Z,0.40
2022-09-26T22:20:41.653Z,0.47
2022-09-26T22:23:08.373Z,0.40
2022-09-26T22:25:36.959Z,0.50
2022-09-26T22:28:06.405Z,0.60
2022-09-26T22:30:33.312Z,0.32
2022-09-26T22:33:00.682Z,0.40
2022-09-26T22:35:27.875Z,0.50
2022-09-26T22:37:54.578Z,0.30
2022-09-26T22:40:21.475Z,0.40
2022-09-26T22:42:50.255Z,0.47
2022-09-26T22:45:17.482Z,0.77
2022-09-26T22:47:44.251Z,0.75
2022-09-26T22:50:11.107Z,0.55
2022-09-26T22:52:38.006Z,0.40
2022-09-26T22:55:07.751Z,0.40
2022-09-26T22:57:34.608Z,0.52
2022-09-26T23:00:01.955Z,0.50
2022-09-26T23:02:29.351Z,0.30
2022-09-26T23:04:56.617Z,0.32
2022-09-26T23:07:23.479Z,0.50
2022-09-26T23:09:50.482Z,0.43
2022-09-26T23:12:17.345Z,0.45
2022-09-26T23:14:45.119Z,0.40
2022-09-26T23:17:12.058Z,0.55
2022-09-26T23:19:38.919Z,0.30
2022-09-26T23:22:06.064Z,0.75
2022-09-26T23:24:33.777Z,0.40
2022-09-26T23:27:00.601Z,0.30
2022-09-26T23:29:27.391Z,0.60
2022-09-26T23:31:54.857Z,0.45
2022-09-26T23:34:21.522Z,0.38
2022-09-26T23:36:48.399Z,0.52
2022-09-26T23:39:15.229Z,0.60
2022-09-26T23:41:42.203Z,0.55
2022-09-26T23:44:09.037Z,0.45
2022-09-26T23:46:36.539Z,0.95
2022-09-26T23:49:03.380Z,0.63
2022-09-26T23:51:30.209Z,0.35
2022-09-26T23:53:57.136Z,0.65
2022-09-26T23:56:23.969Z,1.15
2022-09-26T23:58:50.808Z,0.52
